Time;durP1;ratioP1;P1;durP2;ratioP2;P2;SDS_P1;SDS_P2;PMS_P1;PMS_P2;Temp;Humidity;BMP_temperature;BMP_pressure;BME280_temperature;BME280_humidity;BME280_pressure;Samples;Min_cycle;Max_cycle;Signal;HPM_P1;HPM_P2
2022/01/13 00:00:02;;;;;;;26.13;17.20;;;;;;;0.69;59.04;101220.97;5024389;28;20220;-65
2022/01/13 00:02:33;;;;;;;27.17;18.07;;;;;;;0.60;59.14;101210.88;5025137;28;20239;-65
2022/01/13 00:05:01;;;;;;;26.13;18.13;;;;;;;0.65;59.39;101235.16;5037033;28;20228;-65
2022/01/13 00:07:28;;;;;;;23.87;17.67;;;;;;;0.85;59.11;101247.34;5045540;28;20641;-66
2022/01/13 00:09:55;;;;;;;25.97;19.43;;;;;;;0.79;59.20;101242.38;5046277;28;20609;-65
2022/01/13 00:12:27;;;;;;;24.00;17.90;;;;;;;0.74;59.37;101233.88;5039301;28;20217;-65
2022/01/13 00:15:08;;;;;;;27.77;19.07;;;;;;;0.84;58.97;101243.00;5028668;28;20217;-65
2022/01/13 00:20:38;;;;;;;24.03;17.83;;;;;;;1.33;57.91;101258.22;5028258;28;20229;-65
2022/01/13 00:25:55;;;;;;;22.53;16.97;;;;;;;0.72;59.66;101249.69;5028369;28;20224;-65
2022/01/13 00:28:24;;;;;;;24.33;17.60;;;;;;;0.75;59.34;101257.44;5028371;28;20709;-66
2022/01/13 00:30:54;;;;;;;23.67;17.47;;;;;;;0.93;59.23;101275.91;5028669;28;20224;-65
2022/01/13 00:33:24;;;;;;;23.10;17.10;;;;;;;0.74;59.36;101260.13;5028278;28;20622;-65
2022/01/13 00:35:55;;;;;;;24.17;17.07;;;;;;;0.99;58.70;101265.97;5028790;28;20232;-66
2022/01/13 00:38:22;;;;;;;24.50;17.27;;;;;;;0.90;59.08;101257.66;5025861;28;20221;-65
2022/01/13 00:40:49;;;;;;;23.17;18.23;;;;;;;0.80;59.18;101258.06;5028946;28;20224;-66
2022/01/13 00:43:16;;;;;;;25.97;17.40;;;;;;;0.67;59.09;101251.69;5028048;28;20750;-66
2022/01/13 00:45:44;;;;;;;23.40;18.17;;;;;;;1.12;58.62;101286.41;5028451;28;20613;-65
2022/01/13 00:48:10;;;;;;;21.70;16.47;;;;;;;1.00;58.79;101288.66;5038024;28;20224;-65
2022/01/13 00:50:38;;;;;;;23.17;17.13;;;;;;;0.67;59.36;101267.44;5047427;28;20284;-65
2022/01/13 00:53:05;;;;;;;25.20;18.00;;;;;;;0.69;58.79;101267.38;5047345;28;20226;-65
2022/01/13 00:55:45;;;;;;;25.83;18.83;;;;;;;0.56;59.57;101267.94;5029848;28;20228;-66
2022/01/13 00:58:13;;;;;;;24.80;18.03;;;;;;;0.64;59.41;101275.50;5023927;28;20232;-66
2022/01/13 01:00:41;;;;;;;25.90;18.40;;;;;;;0.60;58.92;101269.50;5031530;28;20239;-65
2022/01/13 01:03:08;;;;;;;22.57;17.23;;;;;;;0.33;59.85;101260.25;5047963;28;20743;-66
2022/01/13 01:05:36;;;;;;;25.00;17.93;;;;;;;1.02;58.78;101302.59;5047013;28;20253;-66
2022/01/13 01:08:05;;;;;;;24.77;17.83;;;;;;;1.04;58.58;101289.38;5048087;28;20220;-65
2022/01/13 01:10:33;;;;;;;24.37;18.23;;;;;;;1.17;58.69;101306.28;5045777;28;20226;-65
2022/01/13 01:13:09;;;;;;;28.23;19.10;;;;;;;0.96;59.03;101297.63;5032693;28;20708;-65
2022/01/13 01:15:38;;;;;;;24.27;17.67;;;;;;;1.35;57.95;101303.72;5027845;28;20234;-66
2022/01/13 01:18:16;;;;;;;23.77;17.90;;;;;;;1.32;57.59;101301.22;5027075;28;20221;-66
2022/01/13 01:21:01;;;;;;;25.13;18.13;;;;;;;1.42;57.45;101302.47;5026927;28;20862;-65
2022/01/13 01:23:30;;;;;;;22.40;17.13;;;;;;;1.48;57.15;101312.75;5025452;28;20216;-65
2022/01/13 01:26:38;;;;;;;26.20;17.80;;;;;;;0.89;58.00;101272.59;5027578;28;20709;-65
2022/01/13 01:28:59;;;;;;;24.00;18.13;;;;;;;1.42;57.22;101313.00;5026299;28;20739;-65
2022/01/13 01:31:30;;;;;;;24.47;17.90;;;;;;;1.22;57.54;101305.22;5027782;28;20422;-66
2022/01/13 01:36:41;;;;;;;23.57;17.77;;;;;;;0.82;58.18;101281.66;5026843;28;20232;-65
2022/01/13 01:39:08;;;;;;;24.23;18.03;;;;;;;0.35;59.53;101272.41;5027374;28;20250;-66
2022/01/13 01:41:38;;;;;;;23.53;17.93;;;;;;;0.62;59.00;101293.94;5027828;28;20229;-66
2022/01/13 01:44:14;;;;;;;23.33;17.13;;;;;;;0.69;58.50;101294.50;5027297;28;20712;-65
2022/01/13 01:46:46;;;;;;;22.60;17.57;;;;;;;0.74;58.72;101299.53;5026598;28;20603;-65
2022/01/13 01:49:16;;;;;;;24.00;17.60;;;;;;;1.00;58.09;101317.56;5027457;28;20221;-65
2022/01/13 01:51:45;;;;;;;24.07;17.80;;;;;;;0.95;57.87;101302.97;5027457;28;20726;-66
2022/01/13 01:54:12;;;;;;;21.07;17.40;;;;;;;0.50;59.56;101283.13;5027362;28;20625;-66
2022/01/13 01:56:40;;;;;;;23.53;18.23;;;;;;;0.51;59.45;101296.19;5023494;28;20251;-66
2022/01/13 01:59:15;;;;;;;26.10;18.03;;;;;;;0.50;59.17;101283.13;5047509;28;20230;-66
2022/01/13 02:01:44;;;;;;;27.70;17.73;;;;;;;0.64;58.98;101294.72;5032611;28;20235;-66
2022/01/13 02:04:12;;;;;;;24.90;18.40;;;;;;;0.56;59.27;101293.38;5027402;28;20221;-66
2022/01/13 02:06:39;;;;;;;23.83;17.90;;;;;;;0.96;58.18;101312.53;5026352;28;20615;-66
2022/01/13 02:09:09;;;;;;;24.10;18.20;;;;;;;0.44;59.42;101282.47;5027285;28;20228;-65
2022/01/13 02:11:49;;;;;;;24.93;18.73;;;;;;;0.26;59.61;101259.66;5026616;28;20229;-65
2022/01/13 02:17:04;;;;;;;24.97;18.83;;;;;;;0.09;59.97;101257.78;5026897;28;20220;-65
2022/01/13 02:19:37;;;;;;;25.17;17.33;;;;;;;0.21;60.10;101273.00;5026767;28;20224;-65
2022/01/13 02:22:05;;;;;;;25.43;18.47;;;;;;;0.24;59.86;101266.78;5027272;28;20720;-65
2022/01/13 02:24:33;;;;;;;26.03;17.67;;;;;;;0.03;60.34;101258.06;5025637;28;20258;-65
2022/01/13 02:27:01;;;;;;;24.60;17.70;;;;;;;0.30;59.77;101276.97;5027015;28;20609;-65
2022/01/13 02:29:28;;;;;;;25.87;18.73;;;;;;;0.30;60.21;101269.09;5035766;28;20215;-65
2022/01/13 02:31:55;;;;;;;25.87;18.90;;;;;;;0.20;59.94;101249.44;5030908;28;20213;-65
2022/01/13 02:34:22;;;;;;;26.03;19.17;;;;;;;0.15;60.26;101251.41;5025194;28;20868;-65
2022/01/13 02:36:53;;;;;;;27.13;18.90;;;;;;;0.41;59.51;101271.25;5026492;28;20225;-66
2022/01/13 02:39:22;;;;;;;27.00;18.63;;;;;;;0.07;59.76;101229.00;5026088;28;20616;-65
2022/01/13 02:41:49;;;;;;;27.60;19.17;;;;;;;0.72;58.69;101275.13;5018527;28;20250;-65
2022/01/13 02:44:20;;;;;;;26.53;18.17;;;;;;;0.27;59.77;101240.41;5025997;28;20626;-64
2022/01/13 02:49:17;;;;;;;26.10;20.37;;;;;;;0.26;60.13;101252.63;5007082;28;20221;-65
2022/01/13 02:51:47;;;;;;;24.77;18.43;;;;;;;0.12;60.38;101243.66;5005949;28;20221;-65
2022/01/13 02:54:14;;;;;;;26.67;19.63;;;;;;;0.37;59.96;101267.94;5022565;28;20221;-66
2022/01/13 02:56:42;;;;;;;27.50;19.53;;;;;;;0.58;59.33;101278.38;5017051;28;20230;-65
2022/01/13 02:59:09;;;;;;;25.87;19.73;;;;;;;0.39;59.55;101260.84;5021890;28;20232;-66
2022/01/13 03:01:36;;;;;;;29.87;19.63;;;;;;;0.33;59.94;101244.50;5017128;28;20225;-65
2022/01/13 03:04:07;;;;;;;31.87;20.50;;;;;;;0.35;59.72;101255.78;5025856;28;20230;-65
2022/01/13 03:06:38;;;;;;;26.97;21.27;;;;;;;0.51;59.34;101263.84;5025789;28;20228;-66
2022/01/13 03:09:08;;;;;;;26.67;19.77;;;;;;;0.38;59.68;101253.88;5026106;28;20221;-66
2022/01/13 03:11:37;;;;;;;28.00;20.30;;;;;;;0.25;60.05;101250.97;5025197;28;20221;-65
2022/01/13 03:14:06;;;;;;;29.67;21.30;;;;;;;0.42;59.48;101250.19;5025950;28;20220;-65
2022/01/13 03:16:34;;;;;;;27.97;21.20;;;;;;;-0.20;60.87;101204.81;5025234;28;20228;-65
2022/01/13 03:19:02;;;;;;;28.70;20.70;;;;;;;0.25;60.31;101243.09;5026213;28;20636;-65
2022/01/13 03:21:29;;;;;;;26.50;19.57;;;;;;;0.37;60.23;101248.69;5025847;28;20226;-65
2022/01/13 03:23:56;;;;;;;27.17;20.13;;;;;;;0.48;59.27;101241.19;5024367;28;20220;-66
2022/01/13 03:26:24;;;;;;;23.60;17.60;;;;;;;0.55;59.20;101236.50;5023737;28;20224;-65
2022/01/13 03:28:54;;;;;;;30.40;20.83;;;;;;;0.43;59.23;101235.28;5026185;28;20231;-65
2022/01/13 03:31:23;;;;;;;32.20;21.27;;;;;;;0.53;58.98;101246.22;5023839;28;20220;-66
2022/01/13 03:33:51;;;;;;;27.47;20.03;;;;;;;0.28;59.73;101236.81;5026132;28;20232;-65
2022/01/13 03:36:18;;;;;;;28.60;20.73;;;;;;;0.06;60.53;101229.06;5025656;28;20242;-65
2022/01/13 03:38:46;;;;;;;29.30;21.30;;;;;;;0.59;59.25;101262.56;5013761;28;20447;-65
2022/01/13 03:41:13;;;;;;;27.17;20.17;;;;;;;0.46;59.36;101245.66;5006368;28;20611;-65
2022/01/13 03:43:40;;;;;;;30.10;19.90;;;;;;;0.49;59.49;101250.78;5005340;28;20618;-65
2022/01/13 03:46:08;;;;;;;28.27;20.20;;;;;;;0.74;58.87;101242.63;5009039;28;20225;-66
2022/01/13 03:48:38;;;;;;;27.00;20.60;;;;;;;0.72;59.20;101248.84;5028823;28;20247;-65
2022/01/13 03:51:05;;;;;;;27.37;21.13;;;;;;;0.42;59.78;101244.06;5029828;28;20220;-65
2022/01/13 03:53:32;;;;;;;31.70;22.03;;;;;;;0.51;59.19;101240.19;5028981;28;20505;-65
2022/01/13 03:56:24;;;;;;;28.83;20.57;;;;;;;0.78;58.77;101259.09;5026543;28;20228;-65
2022/01/13 03:59:13;;;;;;;27.80;20.83;;;;;;;0.43;59.68;101245.78;5012857;28;21605;-65
2022/01/13 04:01:55;;;;;;;27.30;19.60;;;;;;;0.39;59.33;101242.47;5029240;28;20221;-65
2022/01/13 04:04:22;;;;;;;32.00;21.80;;;;;;;0.32;60.23;101258.53;5017316;28;20296;-64
2022/01/13 04:06:49;;;;;;;33.83;22.57;;;;;;;0.19;60.27;101253.00;5025123;28;20228;-65
2022/01/13 04:09:22;;;;;;;42.10;27.03;;;;;;;0.14;60.82;101250.56;5026800;28;20224;-65
2022/01/13 04:11:51;;;;;;;29.80;20.23;;;;;;;-0.29;60.63;101202.59;5017390;28;20584;-65
2022/01/13 04:14:27;;;;;;;29.37;20.93;;;;;;;-0.20;61.06;101225.81;5005580;28;20236;-65
2022/01/13 04:16:54;;;;;;;28.53;20.13;;;;;;;0.46;59.72;101269.28;5007104;28;20567;-65
2022/01/13 04:19:21;;;;;;;28.17;19.93;;;;;;;0.66;59.17;101262.25;5006161;28;20225;-65
2022/01/13 04:21:48;;;;;;;29.23;20.07;;;;;;;0.63;59.47;101268.50;5020323;28;20233;-65
2022/01/13 04:24:15;;;;;;;28.37;20.37;;;;;;;0.50;59.71;101256.88;5025519;28;20232;-65
2022/01/13 04:26:44;;;;;;;30.43;21.07;;;;;;;0.09;60.35;101228.94;5026551;28;20886;-65
2022/01/13 04:31:39;;;;;;;27.67;20.00;;;;;;;0.25;59.99;101237.84;5027106;28;20227;-65
2022/01/13 04:34:06;;;;;;;27.83;19.53;;;;;;;0.40;59.58;101249.44;5026260;28;20231;-69
2022/01/13 04:36:33;;;;;;;28.97;21.43;;;;;;;0.50;59.77;101265.59;5019528;28;20234;-70
2022/01/13 04:39:01;;;;;;;29.67;20.27;;;;;;;0.26;60.05;101236.06;5022895;28;20703;-67
2022/01/13 04:41:34;;;;;;;27.97;19.90;;;;;;;0.18;59.61;101228.50;5021980;28;20225;-67
2022/01/13 04:44:05;;;;;;;29.00;19.93;;;;;;;0.42;59.61;101247.56;5021128;28;20234;-66
2022/01/13 04:46:32;;;;;;;26.00;20.20;;;;;;;0.33;59.69;101261.09;5021108;28;20233;-67
2022/01/13 04:49:02;;;;;;;27.77;19.40;;;;;;;0.38;59.95;101260.91;5021234;28;20231;-67
2022/01/13 04:51:29;;;;;;;29.13;20.53;;;;;;;0.16;60.17;101247.88;5026162;28;20756;-72
2022/01/13 04:53:55;;;;;;;30.57;19.93;;;;;;;0.56;59.61;101267.09;5026725;28;20224;-72
2022/01/13 04:56:32;;;;;;;27.17;20.20;;;;;;;0.38;59.78;101261.75;5024422;28;20232;-72
2022/01/13 04:58:59;;;;;;;25.43;18.23;;;;;;;0.42;59.50;101267.69;5025590;28;20659;-67
2022/01/13 05:02:49;;;;;;;25.83;19.53;;;;;;;-1.51;64.79;101243.25;5073327;27;20366;-66
2022/01/13 05:05:17;;;;;;;28.23;19.97;;;;;;;-0.91;63.76;101319.59;5053825;28;20700;-66
2022/01/13 05:08:08;;;;;;;31.47;20.10;;;;;;;-0.25;62.31;101345.78;5022131;28;20208;-66
2022/01/13 05:10:58;;;;;;;27.40;19.37;;;;;;;-0.30;62.45;101322.38;5024003;28;20195;-67
2022/01/13 05:13:50;;;;;;;28.10;19.70;;;;;;;-0.61;62.50;101287.81;5007832;28;20232;-66
2022/01/13 05:16:23;;;;;;;25.83;19.80;;;;;;;-0.14;62.25;101303.38;5024127;28;20237;-66
2022/01/13 05:23:49;;;;;;;26.23;19.30;;;;;;;-0.23;62.25;101288.03;5040445;28;20702;-66
2022/01/13 05:26:16;;;;;;;35.27;21.90;;;;;;;0.44;61.64;101332.38;5043067;28;20238;-66
2022/01/13 05:28:42;;;;;;;28.67;20.83;;;;;;;0.73;60.44;101301.31;5042342;28;20224;-66
2022/01/13 05:31:09;;;;;;;27.20;19.43;;;;;;;0.11;61.68;101273.47;5042675;28;20671;-66
2022/01/13 05:33:38;;;;;;;27.90;20.17;;;;;;;-0.19;61.48;101251.13;5042848;28;20740;-66
2022/01/13 05:36:05;;;;;;;28.87;19.33;;;;;;;0.17;61.90;101287.19;5043301;28;20231;-67
2022/01/13 05:38:32;;;;;;;28.00;20.03;;;;;;;0.48;61.27;101298.94;5041899;28;20224;-65
2022/01/13 05:40:59;;;;;;;30.30;20.07;;;;;;;0.12;61.90;101291.78;5043144;28;20242;-66
2022/01/13 05:43:26;;;;;;;30.10;19.87;;;;;;;0.43;61.57;101303.56;5042951;28;20238;-66
2022/01/13 05:45:53;;;;;;;28.43;20.00;;;;;;;0.39;61.66;101302.84;5031481;28;20607;-66
2022/01/13 05:48:20;;;;;;;28.43;19.43;;;;;;;-0.06;61.89;101263.72;5042471;28;20224;-65
2022/01/13 05:50:47;;;;;;;28.60;21.23;;;;;;;0.74;60.64;101304.78;5038015;28;20738;-65
2022/01/13 05:53:13;;;;;;;28.47;19.40;;;;;;;0.52;61.04;101290.03;5042097;28;20224;-65
2022/01/13 05:55:40;;;;;;;31.47;20.57;;;;;;;-0.17;64.12;101299.13;5042786;28;20225;-65
2022/01/13 05:58:07;;;;;;;31.00;19.70;;;;;;;0.09;62.64;101307.66;5042972;28;20220;-65
2022/01/13 06:00:35;;;;;;;30.63;20.70;;;;;;;0.14;62.79;101296.97;5041920;28;20216;-64
2022/01/13 06:03:04;;;;;;;31.20;19.97;;;;;;;0.74;61.50;101312.66;5042612;28;20235;-64
2022/01/13 06:05:32;;;;;;;28.97;21.40;;;;;;;0.55;61.11;101292.50;5042201;28;20311;-64
2022/01/13 06:07:59;;;;;;;28.57;19.90;;;;;;;0.76;61.42;101314.31;5042565;28;20228;-64
2022/01/13 06:10:27;;;;;;;28.53;19.93;;;;;;;-0.25;63.94;101268.91;5042457;28;20620;-64
2022/01/13 06:12:54;;;;;;;32.17;19.90;;;;;;;0.66;61.50;101310.41;5035558;28;20236;-65
2022/01/13 06:15:24;;;;;;;29.30;20.37;;;;;;;0.99;60.89;101321.16;5029690;28;20233;-65
2022/01/13 06:17:53;;;;;;;31.20;20.97;;;;;;;0.55;62.06;101308.25;5029039;28;20323;-64
2022/01/13 06:20:22;;;;;;;31.37;20.07;;;;;;;1.11;60.51;101303.94;5029448;28;20239;-64
2022/01/13 06:22:51;;;;;;;35.80;21.77;;;;;;;-0.41;64.57;101256.41;5028205;28;20629;-64
2022/01/13 06:25:19;;;;;;;31.80;20.17;;;;;;;0.12;63.84;101302.28;5029398;28;20716;-64
2022/01/13 06:27:46;;;;;;;31.10;20.73;;;;;;;0.58;62.29;101307.28;5021057;28;20958;-64
2022/01/13 06:30:33;;;;;;;35.67;21.53;;;;;;;0.98;61.29;101315.97;5028568;28;20220;-65
2022/01/13 06:33:01;;;;;;;35.43;22.03;;;;;;;0.77;61.77;101297.63;5028834;28;20234;-64
2022/01/13 06:35:27;;;;;;;34.10;21.47;;;;;;;0.56;62.57;101304.72;5028680;28;20232;-64
2022/01/13 06:37:54;;;;;;;36.33;23.73;;;;;;;0.35;63.08;101297.78;5028834;28;20288;-64
2022/01/13 06:40:21;;;;;;;45.43;23.80;;;;;;;0.44;62.66;101300.00;5028476;28;20278;-64
2022/01/13 06:42:48;;;;;;;43.63;25.73;;;;;;;0.02;64.36;101298.34;5026564;28;20225;-64
2022/01/13 06:45:15;;;;;;;41.13;26.73;;;;;;;0.07;64.00;101302.47;5028106;28;20906;-64
2022/01/13 06:47:42;;;;;;;44.27;26.57;;;;;;;0.17;64.58;101326.53;5028634;28;20598;-64
2022/01/13 06:50:11;;;;;;;45.50;25.97;;;;;;;-0.22;64.78;101289.72;5028736;28;20231;-64
2022/01/13 06:52:39;;;;;;;42.37;23.90;;;;;;;-0.74;66.37;101262.13;5027944;28;20234;-64
2022/01/13 06:55:07;;;;;;;51.00;26.47;;;;;;;-0.16;65.77;101315.69;5028126;28;20228;-64
2022/01/13 06:57:34;;;;;;;53.17;25.77;;;;;;;-0.11;65.14;101300.63;5027552;28;20716;-64
2022/01/13 07:00:01;;;;;;;51.27;26.77;;;;;;;-0.19;65.52;101298.34;5028616;28;20235;-65
2022/01/13 07:02:30;;;;;;;65.17;26.40;;;;;;;-0.13;65.67;101313.81;5027807;28;20750;-64
2022/01/13 07:04:57;;;;;;;66.13;26.23;;;;;;;-0.01;65.57;101328.16;5023954;28;20856;-65
2022/01/13 07:07:24;;;;;;;134.60;28.10;;;;;;;-0.79;67.58;101286.81;5015423;28;20236;-64
2022/01/13 07:09:51;;;;;;;50.17;26.60;;;;;;;0.10;65.84;101348.72;5027742;28;20244;-65
2022/01/13 07:12:18;;;;;;;90.17;27.73;;;;;;;0.35;64.71;101345.03;5027336;28;20220;-65
2022/01/13 07:14:45;;;;;;;89.33;27.80;;;;;;;-0.16;66.39;101334.06;5026765;28;20667;-64
2022/01/13 07:17:12;;;;;;;102.80;27.13;;;;;;;-0.37;66.64;101307.81;5028204;28;20232;-65
2022/01/13 07:19:39;;;;;;;88.47;26.37;;;;;;;-0.60;67.78;101300.88;5027625;28;20243;-65
2022/01/13 07:22:07;;;;;;;130.07;29.07;;;;;;;0.04;66.13;101334.06;5026355;28;20224;-65
2022/01/13 07:24:34;;;;;;;89.77;28.30;;;;;;;0.20;65.29;101321.16;5025544;28;20223;-64
2022/01/13 07:27:01;;;;;;;94.80;27.13;;;;;;;-0.08;65.66;101308.38;5027939;28;20243;-64
2022/01/13 07:29:28;;;;;;;79.13;27.57;;;;;;;0.19;65.84;101339.59;5028076;28;20221;-65
2022/01/13 07:31:54;;;;;;;71.40;27.23;;;;;;;-0.54;67.88;101312.88;5027718;28;20217;-65
2022/01/13 07:34:21;;;;;;;90.87;29.83;;;;;;;-0.08;66.21;101329.34;5027461;28;20598;-65
2022/01/13 07:36:48;;;;;;;100.90;27.63;;;;;;;0.23;65.95;101356.91;5027211;28;20221;-65
2022/01/13 07:39:15;;;;;;;75.03;27.87;;;;;;;0.06;65.35;101313.88;5027527;28;20226;-65
2022/01/13 07:41:42;;;;;;;57.30;27.67;;;;;;;0.20;65.89;101349.16;5027165;28;20234;-65
2022/01/13 07:44:10;;;;;;;99.93;28.63;;;;;;;0.71;64.47;101355.69;5027385;28;20230;-65
2022/01/13 07:46:37;;;;;;;62.13;29.07;;;;;;;0.40;65.05;101333.44;5027165;28;20910;-64
2022/01/13 07:49:04;;;;;;;76.00;29.47;;;;;;;0.75;63.87;101338.03;5027294;28;20224;-65
2022/01/13 07:51:31;;;;;;;89.80;30.97;;;;;;;0.63;64.01;101332.38;5027061;28;20235;-65
2022/01/13 07:53:58;;;;;;;85.57;30.40;;;;;;;0.70;64.21;101342.63;5026313;28;20702;-65
2022/01/13 07:56:25;;;;;;;66.70;29.03;;;;;;;0.44;63.84;101316.63;5027412;28;20231;-65
2022/01/13 07:58:52;;;;;;;64.97;31.63;;;;;;;0.23;65.74;101341.16;5026567;28;20622;-65
2022/01/13 08:01:19;;;;;;;65.80;30.50;;;;;;;0.74;63.51;101338.94;5027503;28;20229;-65
2022/01/13 08:03:46;;;;;;;69.93;32.80;;;;;;;0.59;64.43;101359.72;5026825;28;20228;-65
2022/01/13 08:06:14;;;;;;;74.27;32.73;;;;;;;0.21;65.68;101345.63;5026729;28;20228;-65
2022/01/13 08:08:41;;;;;;;78.87;34.73;;;;;;;-0.00;66.10;101339.50;5026597;28;20235;-65
2022/01/13 08:11:09;;;;;;;71.93;32.90;;;;;;;0.03;65.80;101334.13;5027061;28;20608;-65
2022/01/13 08:13:36;;;;;;;77.87;35.27;;;;;;;-0.21;67.04;101338.66;5026953;28;20240;-65
2022/01/13 08:16:09;;;;;;;61.13;32.27;;;;;;;0.18;65.68;101353.63;5026699;28;20233;-65
2022/01/13 08:21:24;;;;;;;68.37;32.63;;;;;;;0.16;65.74;101352.84;5026603;28;20730;-65
2022/01/13 08:23:51;;;;;;;80.20;34.67;;;;;;;-0.41;67.08;101314.09;5024454;28;20231;-65
2022/01/13 08:26:18;;;;;;;66.43;32.27;;;;;;;0.23;65.67;101351.66;5026659;28;20221;-65
2022/01/13 08:28:46;;;;;;;87.43;35.57;;;;;;;-0.06;66.67;101335.38;5025035;28;20221;-65
2022/01/13 08:31:13;;;;;;;73.63;34.63;;;;;;;0.12;66.15;101351.25;5026995;28;20239;-65
2022/01/13 08:33:40;;;;;;;74.10;36.87;;;;;;;0.01;66.03;101330.72;5025913;28;20235;-65
2022/01/13 08:36:07;;;;;;;69.30;34.27;;;;;;;0.82;64.28;101335.06;5026365;28;20225;-65
2022/01/13 08:38:35;;;;;;;69.23;34.27;;;;;;;0.78;64.60;101335.25;5025878;28;20220;-65
2022/01/13 08:41:03;;;;;;;70.00;34.50;;;;;;;0.74;64.36;101334.56;5026825;28;20238;-65
2022/01/13 08:43:31;;;;;;;76.90;34.07;;;;;;;1.05;63.62;101348.91;5026191;28;20735;-65
2022/01/13 08:45:59;;;;;;;64.40;33.40;;;;;;;0.86;64.04;101332.28;5025679;28;20220;-65
2022/01/13 08:48:28;;;;;;;68.93;34.90;;;;;;;0.80;64.96;101342.13;5026458;28;20228;-65
2022/01/13 08:50:56;;;;;;;70.87;34.27;;;;;;;0.77;64.20;101317.78;5025829;28;20243;-65
2022/01/13 08:53:23;;;;;;;66.17;34.27;;;;;;;0.64;64.81;101322.75;5025913;28;20242;-65
2022/01/13 08:55:51;;;;;;;69.57;35.63;;;;;;;0.47;65.90;101334.00;5026192;28;20223;-65
2022/01/13 08:58:22;;;;;;;68.87;35.37;;;;;;;0.77;64.97;101323.88;5026247;28;20675;-65
2022/01/13 09:00:51;;;;;;;70.23;36.80;;;;;;;0.62;65.64;101324.56;5025727;28;20231;-65
2022/01/13 09:03:19;;;;;;;71.23;35.30;;;;;;;0.95;64.91;101332.72;5025809;28;20239;-65
2022/01/13 09:05:46;;;;;;;73.23;36.30;;;;;;;0.50;65.70;101315.47;5018415;28;20227;-65
2022/01/13 09:08:13;;;;;;;70.30;34.70;;;;;;;0.90;63.79;101311.06;5025821;28;20237;-65
2022/01/13 09:10:42;;;;;;;75.30;35.57;;;;;;;1.11;64.03;101322.34;5025618;28;20228;-65
2022/01/13 09:13:12;;;;;;;67.60;34.13;;;;;;;0.90;64.77;101312.84;5025158;28;20624;-66
2022/01/13 09:15:44;;;;;;;64.77;33.87;;;;;;;1.25;63.29;101324.31;5026346;28;20233;-65
2022/01/13 09:18:19;;;;;;;58.47;32.87;;;;;;;0.70;64.94;101317.22;5013248;28;20443;-65
2022/01/13 09:20:47;;;;;;;67.77;33.50;;;;;;;1.18;63.49;101325.53;4987353;28;20601;-65
2022/01/13 09:23:14;;;;;;;70.17;34.47;;;;;;;1.36;62.70;101301.00;5025641;28;20229;-65
2022/01/13 09:25:40;;;;;;;64.70;33.40;;;;;;;1.01;63.88;101308.78;5024772;28;20607;-65
2022/01/13 09:28:08;;;;;;;66.83;34.53;;;;;;;1.49;62.60;101321.47;5026123;28;20236;-65
2022/01/13 09:30:36;;;;;;;70.40;35.20;;;;;;;1.40;62.72;101314.84;5025477;28;20222;-65
2022/01/13 09:33:04;;;;;;;67.83;33.53;;;;;;;1.08;63.34;101319.00;5025063;28;20231;-65
2022/01/13 09:35:32;;;;;;;74.70;36.07;;;;;;;0.96;63.93;101329.16;5008408;28;20222;-65
2022/01/13 09:37:59;;;;;;;65.10;35.07;;;;;;;0.98;64.04;101331.72;5025017;28;20710;-65
2022/01/13 09:40:26;;;;;;;65.60;33.43;;;;;;;0.85;64.19;101341.09;5022758;28;20226;-65
2022/01/13 09:42:54;;;;;;;58.17;32.03;;;;;;;1.36;63.16;101343.06;5024753;28;20643;-65
2022/01/13 09:45:21;;;;;;;55.87;31.00;;;;;;;1.01;63.72;101329.81;5025139;28;21816;-65
2022/01/13 09:47:49;;;;;;;63.73;32.87;;;;;;;0.75;64.72;101330.97;5022433;28;20597;-65
2022/01/13 09:50:20;;;;;;;61.27;31.10;;;;;;;0.92;63.82;101327.59;5029490;28;20242;-66
2022/01/13 09:52:47;;;;;;;67.07;33.97;;;;;;;0.35;65.51;101316.16;5025806;28;20218;-65
2022/01/13 09:55:15;;;;;;;52.93;29.93;;;;;;;0.62;64.74;101328.06;5013305;28;20233;-65
2022/01/13 09:57:45;;;;;;;54.67;31.57;;;;;;;0.73;64.22;101332.84;5011944;28;20873;-65
2022/01/13 10:00:20;;;;;;;53.40;30.53;;;;;;;0.75;64.48;101332.78;5028837;28;20686;-65
2022/01/13 10:02:47;;;;;;;55.03;30.80;;;;;;;1.13;63.85;101335.44;5026187;28;20231;-66
2022/01/13 10:05:18;;;;;;;47.07;27.87;;;;;;;1.51;62.35;101319.63;5028723;28;20225;-65
2022/01/13 10:07:48;;;;;;;48.37;27.73;;;;;;;1.53;62.53;101317.75;5028625;28;20602;-65
2022/01/13 10:10:26;;;;;;;42.70;25.77;;;;;;;0.83;62.86;101275.47;5028734;28;20631;-66
2022/01/13 10:13:39;;;;;;;38.73;25.03;;;;;;;1.80;62.13;101322.59;5029219;28;20607;-65
2022/01/13 10:16:25;;;;;;;36.50;24.67;;;;;;;1.71;62.20;101310.75;4997053;28;20683;-65
2022/01/13 10:18:52;;;;;;;41.30;24.30;;;;;;;1.58;62.49;101307.84;5016427;28;20220;-66
2022/01/13 10:21:20;;;;;;;36.07;22.90;;;;;;;1.75;61.50;101300.00;5028698;28;20232;-65
2022/01/13 10:24:09;;;;;;;39.37;24.33;;;;;;;1.92;61.23;101303.53;5028481;28;20230;-65
2022/01/13 10:26:39;;;;;;;30.63;22.33;;;;;;;1.73;62.13;101311.50;5028586;28;20725;-66
2022/01/13 10:29:07;;;;;;;33.27;21.87;;;;;;;1.87;61.29;101305.56;5023601;28;20214;-65
2022/01/13 10:31:47;;;;;;;34.73;22.73;;;;;;;1.83;61.93;101307.50;5028351;28;20229;-66
2022/01/13 10:34:29;;;;;;;29.63;21.00;;;;;;;1.98;61.60;101305.88;5028062;28;20251;-66
2022/01/13 10:37:06;;;;;;;30.80;21.07;;;;;;;1.52;62.53;101311.66;5028715;28;20233;-66
2022/01/13 10:39:42;;;;;;;31.47;21.17;;;;;;;2.18;61.77;101325.91;5027938;28;20227;-66
2022/01/13 10:45:00;;;;;;;31.23;21.03;;;;;;;2.44;59.72;101298.25;5017488;28;20230;-66
2022/01/13 10:47:28;;;;;;;31.07;21.33;;;;;;;2.08;61.19;101298.38;5027993;28;20222;-65
2022/01/13 10:50:01;;;;;;;32.27;21.83;;;;;;;1.80;62.02;101306.78;5028308;28;20611;-66
2022/01/13 10:52:28;;;;;;;34.30;21.43;;;;;;;2.05;61.48;101315.16;5027989;28;20605;-66
2022/01/13 10:55:20;;;;;;;32.90;20.83;;;;;;;2.49;60.87;101319.03;5027832;28;20231;-66
2022/01/13 10:58:07;;;;;;;30.60;20.47;;;;;;;2.07;61.04;101309.81;5018510;28;20762;-66
2022/01/13 11:03:53;;;;;;;33.30;21.77;;;;;;;0.96;64.97;101350.19;5108276;27;20583;-66
2022/01/13 11:06:28;;;;;;;31.27;22.23;;;;;;;1.26;63.52;101327.78;5077308;28;20220;-66
2022/01/13 11:08:57;;;;;;;32.73;22.43;;;;;;;1.04;63.60;101299.03;5103697;28;20223;-66
2022/01/13 11:11:28;;;;;;;29.23;21.27;;;;;;;1.18;63.98;101330.81;5103907;28;20233;-66
2022/01/13 11:14:07;;;;;;;27.43;20.50;;;;;;;1.84;62.13;101306.56;5103151;28;20224;-66
2022/01/13 11:16:37;;;;;;;27.60;20.07;;;;;;;2.00;61.67;101308.44;5104087;28;20451;-66
2022/01/13 11:19:05;;;;;;;28.47;20.40;;;;;;;1.91;62.02;101300.06;5103729;28;20221;-66
2022/01/13 11:21:33;;;;;;;29.57;21.00;;;;;;;2.02;61.98;101282.88;5101665;28;20225;-65
2022/01/13 11:24:01;;;;;;;26.37;20.53;;;;;;;2.06;61.79;101302.88;5102939;28;20221;-66
2022/01/13 11:26:28;;;;;;;27.97;21.53;;;;;;;1.80;62.46;101288.38;5103267;28;20229;-65
2022/01/13 11:28:56;;;;;;;26.93;19.37;;;;;;;2.04;61.69;101283.63;5103811;28;20226;-66
2022/01/13 11:31:23;;;;;;;28.33;19.90;;;;;;;2.06;61.96;101292.34;5103088;28;20617;-66
2022/01/13 11:33:50;;;;;;;30.20;20.63;;;;;;;1.98;61.80;101289.25;5103227;28;20229;-66
2022/01/13 11:36:19;;;;;;;28.37;19.37;;;;;;;1.89;62.64;101296.66;5102999;28;20585;-66
2022/01/13 11:38:57;;;;;;;28.07;19.50;;;;;;;2.22;61.75;101302.91;5095380;28;20227;-66
2022/01/13 11:41:24;;;;;;;27.00;19.60;;;;;;;1.97;62.35;101296.25;5102636;28;20227;-66
2022/01/13 11:43:51;;;;;;;25.67;18.30;;;;;;;2.35;61.35;101300.50;5103187;28;20219;-66
2022/01/13 11:46:23;;;;;;;25.50;18.67;;;;;;;2.21;62.08;101282.78;5103093;28;20232;-66
2022/01/13 11:49:10;;;;;;;26.40;18.27;;;;;;;2.73;60.91;101297.59;5085162;28;20745;-66
2022/01/13 11:51:43;;;;;;;24.37;17.70;;;;;;;2.10;61.57;101270.16;5102709;28;20240;-65
2022/01/13 11:54:11;;;;;;;26.83;18.40;;;;;;;2.13;62.33;101285.81;5100878;28;20220;-66
2022/01/13 11:57:25;;;;;;;25.40;17.73;;;;;;;2.65;61.06;101280.41;5103386;28;20855;-66
2022/01/13 11:59:58;;;;;;;25.20;18.07;;;;;;;2.34;61.82;101280.34;5102506;28;20795;-66